sensor_id;sensor_type;location;lat;lon;timestamp;P1;durP1;ratioP1;P2;durP2;ratioP2
67819;SDS011;54618;52.018;5.576;2023-07-20T00:01:30;7.10;;;4.80;;
67819;SDS011;54618;52.018;5.576;2023-07-20T00:03:55;9.70;;;5.50;;
67819;SDS011;54618;52.018;5.576;2023-07-20T00:06:21;8.60;;;5.13;;
67819;SDS011;54618;52.018;5.576;2023-07-20T00:08:48;10.18;;;5.70;;
67819;SDS011;54618;52.018;5.576;2023-07-20T00:11:14;9.13;;;5.07;;
67819;SDS011;54618;52.018;5.576;2023-07-20T00:13:40;8.50;;;4.80;;
67819;SDS011;54618;52.018;5.576;2023-07-20T00:16:06;10.05;;;5.07;;
67819;SDS011;54618;52.018;5.576;2023-07-20T00:18:34;9.73;;;4.43;;
67819;SDS011;54618;52.018;5.576;2023-07-20T00:21:00;7.82;;;4.72;;
67819;SDS011;54618;52.018;5.576;2023-07-20T00:23:26;7.93;;;4.93;;
67819;SDS011;54618;52.018;5.576;2023-07-20T00:25:51;9.45;;;4.88;;
67819;SDS011;54618;52.018;5.576;2023-07-20T00:28:17;8.15;;;4.40;;
67819;SDS011;54618;52.018;5.576;2023-07-20T00:30:42;11.20;;;5.32;;
67819;SDS011;54618;52.018;5.576;2023-07-20T00:33:11;8.25;;;4.82;;
67819;SDS011;54618;52.018;5.576;2023-07-20T00:35:38;8.30;;;4.80;;
67819;SDS011;54618;52.018;5.576;2023-07-20T00:38:04;8.30;;;4.55;;
67819;SDS011;54618;52.018;5.576;2023-07-20T00:40:36;10.18;;;4.88;;
67819;SDS011;54618;52.018;5.576;2023-07-20T00:43:03;7.13;;;4.80;;
67819;SDS011;54618;52.018;5.576;2023-07-20T00:45:29;8.48;;;4.57;;
67819;SDS011;54618;52.018;5.576;2023-07-20T00:47:55;8.90;;;4.65;;
67819;SDS011;54618;52.018;5.576;2023-07-20T00:50:22;7.15;;;4.35;;
67819;SDS011;54618;52.018;5.576;2023-07-20T00:52:49;7.30;;;4.00;;
67819;SDS011;54618;52.018;5.576;2023-07-20T00:55:14;7.28;;;3.92;;
67819;SDS011;54618;52.018;5.576;2023-07-20T00:57:40;7.47;;;4.03;;
67819;SDS011;54618;52.018;5.576;2023-07-20T01:00:06;6.13;;;3.47;;
67819;SDS011;54618;52.018;5.576;2023-07-20T01:02:33;6.70;;;3.67;;
67819;SDS011;54618;52.018;5.576;2023-07-20T01:04:58;4.78;;;3.20;;
67819;SDS011;54618;52.018;5.576;2023-07-20T01:09:52;5.78;;;3.28;;
67819;SDS011;54618;52.018;5.576;2023-07-20T01:12:30;6.53;;;2.90;;
67819;SDS011;54618;52.018;5.576;2023-07-20T01:15:03;5.57;;;3.13;;
67819;SDS011;54618;52.018;5.576;2023-07-20T01:17:29;4.50;;;2.78;;
67819;SDS011;54618;52.018;5.576;2023-07-20T01:19:55;3.83;;;2.22;;
67819;SDS011;54618;52.018;5.576;2023-07-20T01:22:27;4.25;;;2.58;;
67819;SDS011;54618;52.018;5.576;2023-07-20T01:25:34;2.90;;;1.90;;
67819;SDS011;54618;52.018;5.576;2023-07-20T01:31:33;3.00;;;1.90;;
67819;SDS011;54618;52.018;5.576;2023-07-20T01:34:04;3.25;;;1.75;;
67819;SDS011;54618;52.018;5.576;2023-07-20T01:36:33;2.80;;;1.80;;
67819;SDS011;54618;52.018;5.576;2023-07-20T01:39:01;3.38;;;1.48;;
67819;SDS011;54618;52.018;5.576;2023-07-20T01:41:27;3.72;;;1.90;;
67819;SDS011;54618;52.018;5.576;2023-07-20T01:43:53;2.92;;;1.77;;
67819;SDS011;54618;52.018;5.576;2023-07-20T01:46:22;5.05;;;1.90;;
67819;SDS011;54618;52.018;5.576;2023-07-20T01:48:47;4.65;;;2.00;;
67819;SDS011;54618;52.018;5.576;2023-07-20T01:51:13;3.90;;;1.73;;
67819;SDS011;54618;52.018;5.576;2023-07-20T01:53:39;3.58;;;1.80;;
67819;SDS011;54618;52.018;5.576;2023-07-20T01:56:04;4.93;;;1.88;;
67819;SDS011;54618;52.018;5.576;2023-07-20T01:58:30;2.67;;;1.80;;
67819;SDS011;54618;52.018;5.576;2023-07-20T02:00:55;3.72;;;2.05;;
67819;SDS011;54618;52.018;5.576;2023-07-20T02:03:21;2.35;;;1.80;;
67819;SDS011;54618;52.018;5.576;2023-07-20T02:05:48;3.25;;;1.90;;
67819;SDS011;54618;52.018;5.576;2023-07-20T02:08:14;3.47;;;1.60;;
67819;SDS011;54618;52.018;5.576;2023-07-20T02:10:41;3.85;;;2.15;;
67819;SDS011;54618;52.018;5.576;2023-07-20T02:13:10;4.85;;;1.63;;
67819;SDS011;54618;52.018;5.576;2023-07-20T02:15:35;3.08;;;2.08;;
67819;SDS011;54618;52.018;5.576;2023-07-20T02:18:01;2.92;;;1.90;;
67819;SDS011;54618;52.018;5.576;2023-07-20T02:20:28;6.32;;;2.00;;
67819;SDS011;54618;52.018;5.576;2023-07-20T02:22:54;5.63;;;1.90;;
67819;SDS011;54618;52.018;5.576;2023-07-20T02:25:20;3.85;;;1.67;;
67819;SDS011;54618;52.018;5.576;2023-07-20T02:27:46;2.75;;;1.88;;
67819;SDS011;54618;52.018;5.576;2023-07-20T02:30:12;3.30;;;2.30;;
67819;SDS011;54618;52.018;5.576;2023-07-20T02:32:38;4.07;;;2.13;;
67819;SDS011;54618;52.018;5.576;2023-07-20T02:35:04;3.67;;;2.28;;
67819;SDS011;54618;52.018;5.576;2023-07-20T02:37:30;5.65;;;2.47;;
67819;SDS011;54618;52.018;5.576;2023-07-20T02:39:55;6.72;;;2.50;;
67819;SDS011;54618;52.018;5.576;2023-07-20T02:42:21;7.65;;;2.70;;
67819;SDS011;54618;52.018;5.576;2023-07-20T02:44:48;3.67;;;2.33;;
67819;SDS011;54618;52.018;5.576;2023-07-20T02:47:13;3.17;;;2.35;;
67819;SDS011;54618;52.018;5.576;2023-07-20T02:49:39;6.25;;;2.33;;
67819;SDS011;54618;52.018;5.576;2023-07-20T02:52:04;5.57;;;2.60;;
67819;SDS011;54618;52.018;5.576;2023-07-20T02:54:30;4.95;;;3.08;;
67819;SDS011;54618;52.018;5.576;2023-07-20T02:56:56;3.70;;;2.50;;
67819;SDS011;54618;52.018;5.576;2023-07-20T02:59:22;4.05;;;2.67;;
67819;SDS011;54618;52.018;5.576;2023-07-20T03:01:47;3.97;;;2.50;;
67819;SDS011;54618;52.018;5.576;2023-07-20T03:04:13;4.93;;;2.42;;
67819;SDS011;54618;52.018;5.576;2023-07-20T03:06:38;3.85;;;2.40;;
67819;SDS011;54618;52.018;5.576;2023-07-20T03:09:04;4.32;;;2.05;;
67819;SDS011;54618;52.018;5.576;2023-07-20T03:11:32;3.60;;;2.30;;
67819;SDS011;54618;52.018;5.576;2023-07-20T03:13:58;4.90;;;2.28;;
67819;SDS011;54618;52.018;5.576;2023-07-20T03:16:24;3.42;;;2.60;;
67819;SDS011;54618;52.018;5.576;2023-07-20T03:18:50;4.28;;;2.15;;
67819;SDS011;54618;52.018;5.576;2023-07-20T03:21:15;3.60;;;2.30;;
67819;SDS011;54618;52.018;5.576;2023-07-20T03:23:41;4.93;;;2.10;;
67819;SDS011;54618;52.018;5.576;2023-07-20T03:26:10;8.30;;;2.67;;
67819;SDS011;54618;52.018;5.576;2023-07-20T03:28:39;4.05;;;2.70;;
67819;SDS011;54618;52.018;5.576;2023-07-20T03:31:04;5.25;;;2.58;;
67819;SDS011;54618;52.018;5.576;2023-07-20T03:33:30;4.53;;;2.33;;
67819;SDS011;54618;52.018;5.576;2023-07-20T03:35:57;5.50;;;2.80;;
67819;SDS011;54618;52.018;5.576;2023-07-20T03:38:23;4.22;;;3.00;;
67819;SDS011;54618;52.018;5.576;2023-07-20T03:40:51;7.05;;;2.75;;
67819;SDS011;54618;52.018;5.576;2023-07-20T03:43:17;7.55;;;3.10;;
67819;SDS011;54618;52.018;5.576;2023-07-20T03:45:43;7.28;;;2.53;;
67819;SDS011;54618;52.018;5.576;2023-07-20T03:48:10;5.28;;;2.65;;
67819;SDS011;54618;52.018;5.576;2023-07-20T03:50:39;4.38;;;2.75;;
67819;SDS011;54618;52.018;5.576;2023-07-20T03:53:05;7.95;;;2.85;;
67819;SDS011;54618;52.018;5.576;2023-07-20T03:55:30;6.80;;;2.20;;
67819;SDS011;54618;52.018;5.576;2023-07-20T03:57:56;3.88;;;2.80;;
67819;SDS011;54618;52.018;5.576;2023-07-20T04:00:21;5.00;;;2.60;;
67819;SDS011;54618;52.018;5.576;2023-07-20T04:02:47;5.35;;;2.90;;
67819;SDS011;54618;52.018;5.576;2023-07-20T04:05:12;6.25;;;2.42;;
67819;SDS011;54618;52.018;5.576;2023-07-20T04:07:38;4.82;;;2.60;;
67819;SDS011;54618;52.018;5.576;2023-07-20T04:10:03;4.85;;;2.30;;
67819;SDS011;54618;52.018;5.576;2023-07-20T04:12:29;4.60;;;2.55;;
67819;SDS011;54618;52.018;5.576;2023-07-20T04:14:55;5.25;;;2.50;;
67819;SDS011;54618;52.018;5.576;2023-07-20T04:17:20;6.03;;;3.10;;
67819;SDS011;54618;52.018;5.576;2023-07-20T04:19:46;4.72;;;2.90;;
67819;SDS011;54618;52.018;5.576;2023-07-20T04:22:11;4.72;;;2.47;;
67819;SDS011;54618;52.018;5.576;2023-07-20T04:24:41;5.22;;;2.63;;
67819;SDS011;54618;52.018;5.576;2023-07-20T04:27:10;6.57;;;3.00;;
67819;SDS011;54618;52.018;5.576;2023-07-20T04:29:36;4.55;;;2.42;;
67819;SDS011;54618;52.018;5.576;2023-07-20T04:32:04;5.57;;;2.70;;
67819;SDS011;54618;52.018;5.576;2023-07-20T04:34:30;3.70;;;2.40;;
67819;SDS011;54618;52.018;5.576;2023-07-20T04:36:56;5.85;;;2.85;;
67819;SDS011;54618;52.018;5.576;2023-07-20T04:39:21;3.92;;;2.58;;
67819;SDS011;54618;52.018;5.576;2023-07-20T04:41:47;6.80;;;2.45;;
67819;SDS011;54618;52.018;5.576;2023-07-20T04:44:13;4.45;;;2.40;;
67819;SDS011;54618;52.018;5.576;2023-07-20T04:46:39;4.47;;;2.60;;
67819;SDS011;54618;52.018;5.576;2023-07-20T04:49:05;4.95;;;2.53;;
67819;SDS011;54618;52.018;5.576;2023-07-20T04:51:31;4.82;;;2.60;;
67819;SDS011;54618;52.018;5.576;2023-07-20T04:53:56;3.80;;;2.30;;
67819;SDS011;54618;52.018;5.576;2023-07-20T04:56:22;4.88;;;2.58;;
67819;SDS011;54618;52.018;5.576;2023-07-20T04:58:49;4.80;;;2.50;;
67819;SDS011;54618;52.018;5.576;2023-07-20T05:01:15;4.00;;;2.55;;
67819;SDS011;54618;52.018;5.576;2023-07-20T05:03:40;4.38;;;2.53;;
67819;SDS011;54618;52.018;5.576;2023-07-20T05:06:09;7.38;;;2.72;;
67819;SDS011;54618;52.018;5.576;2023-07-20T05:08:35;4.70;;;2.58;;
67819;SDS011;54618;52.018;5.576;2023-07-20T05:11:00;6.97;;;3.10;;
67819;SDS011;54618;52.018;5.576;2023-07-20T05:13:26;4.45;;;2.88;;
67819;SDS011;54618;52.018;5.576;2023-07-20T05:15:52;5.88;;;2.83;;
67819;SDS011;54618;52.018;5.576;2023-07-20T05:18:18;6.35;;;2.97;;
67819;SDS011;54618;52.018;5.576;2023-07-20T05:20:48;5.78;;;3.15;;
67819;SDS011;54618;52.018;5.576;2023-07-20T05:23:14;4.10;;;2.60;;
67819;SDS011;54618;52.018;5.576;2023-07-20T05:25:42;4.50;;;2.58;;
67819;SDS011;54618;52.018;5.576;2023-07-20T05:28:11;4.72;;;2.88;;
67819;SDS011;54618;52.018;5.576;2023-07-20T05:30:40;5.65;;;2.85;;
67819;SDS011;54618;52.018;5.576;2023-07-20T05:33:05;5.80;;;3.22;;
67819;SDS011;54618;52.018;5.576;2023-07-20T05:35:31;5.05;;;3.30;;
67819;SDS011;54618;52.018;5.576;2023-07-20T05:37:56;4.95;;;3.10;;
67819;SDS011;54618;52.018;5.576;2023-07-20T05:40:22;6.50;;;3.40;;
67819;SDS011;54618;52.018;5.576;2023-07-20T05:42:48;6.15;;;3.38;;
67819;SDS011;54618;52.018;5.576;2023-07-20T05:45:16;5.15;;;3.03;;
67819;SDS011;54618;52.018;5.576;2023-07-20T05:47:42;5.80;;;3.20;;
67819;SDS011;54618;52.018;5.576;2023-07-20T05:50:08;5.55;;;3.67;;
67819;SDS011;54618;52.018;5.576;2023-07-20T05:52:34;8.35;;;3.58;;
67819;SDS011;54618;52.018;5.576;2023-07-20T05:55:00;7.50;;;3.42;;
67819;SDS011;54618;52.018;5.576;2023-07-20T05:57:26;4.50;;;3.30;;
67819;SDS011;54618;52.018;5.576;2023-07-20T05:59:51;5.90;;;3.30;;
67819;SDS011;54618;52.018;5.576;2023-07-20T06:02:17;4.18;;;3.10;;
67819;SDS011;54618;52.018;5.576;2023-07-20T06:04:42;5.40;;;3.10;;
67819;SDS011;54618;52.018;5.576;2023-07-20T06:07:08;5.07;;;3.20;;
67819;SDS011;54618;52.018;5.576;2023-07-20T06:09:34;7.72;;;3.22;;
67819;SDS011;54618;52.018;5.576;2023-07-20T06:12:00;5.28;;;3.10;;
67819;SDS011;54618;52.018;5.576;2023-07-20T06:14:26;3.95;;;3.03;;
67819;SDS011;54618;52.018;5.576;2023-07-20T06:16:51;5.07;;;2.97;;
67819;SDS011;54618;52.018;5.576;2023-07-20T06:19:17;5.18;;;3.03;;
67819;SDS011;54618;52.018;5.576;2023-07-20T06:21:42;4.35;;;2.60;;
67819;SDS011;54618;52.018;5.576;2023-07-20T06:24:08;5.13;;;2.40;;
67819;SDS011;54618;52.018;5.576;2023-07-20T06:26:34;4.75;;;2.53;;
67819;SDS011;54618;52.018;5.576;2023-07-20T06:29:05;5.50;;;2.20;;
67819;SDS011;54618;52.018;5.576;2023-07-20T06:31:34;4.18;;;2.40;;
67819;SDS011;54618;52.018;5.576;2023-07-20T06:34:01;4.95;;;2.30;;
67819;SDS011;54618;52.018;5.576;2023-07-20T06:36:27;3.05;;;2.08;;
67819;SDS011;54618;52.018;5.576;2023-07-20T06:38:53;4.82;;;2.05;;
67819;SDS011;54618;52.018;5.576;2023-07-20T06:41:19;5.20;;;1.70;;
67819;SDS011;54618;52.018;5.576;2023-07-20T06:43:45;4.15;;;1.90;;
67819;SDS011;54618;52.018;5.576;2023-07-20T06:46:11;2.80;;;1.75;;
67819;SDS011;54618;52.018;5.576;2023-07-20T06:48:36;2.20;;;1.50;;
67819;SDS011;54618;52.018;5.576;2023-07-20T06:51:02;4.35;;;1.90;;
67819;SDS011;54618;52.018;5.576;2023-07-20T06:53:28;3.70;;;1.58;;
67819;SDS011;54618;52.018;5.576;2023-07-20T06:55:54;2.97;;;1.52;;
67819;SDS011;54618;52.018;5.576;2023-07-20T06:58:22;2.25;;;1.20;;
67819;SDS011;54618;52.018;5.576;2023-07-20T07:00:50;2.60;;;1.30;;
67819;SDS011;54618;52.018;5.576;2023-07-20T07:03:16;3.65;;;1.75;;
67819;SDS011;54618;52.018;5.576;2023-07-20T07:05:42;4.28;;;1.50;;
67819;SDS011;54618;52.018;5.576;2023-07-20T07:08:09;3.83;;;1.40;;
67819;SDS011;54618;52.018;5.576;2023-07-20T07:10:35;2.95;;;1.02;;
67819;SDS011;54618;52.018;5.576;2023-07-20T07:13:01;5.28;;;0.90;;
67819;SDS011;54618;52.018;5.576;2023-07-20T07:15:27;5.40;;;1.08;;
67819;SDS011;54618;52.018;5.576;2023-07-20T07:17:52;2.33;;;0.90;;
67819;SDS011;54618;52.018;5.576;2023-07-20T07:20:18;4.65;;;0.85;;
67819;SDS011;54618;52.018;5.576;2023-07-20T07:22:44;2.40;;;1.10;;
67819;SDS011;54618;52.018;5.576;2023-07-20T07:25:10;1.30;;;0.77;;
67819;SDS011;54618;52.018;5.576;2023-07-20T07:27:36;1.65;;;0.85;;
67819;SDS011;54618;52.018;5.576;2023-07-20T07:30:05;1.45;;;0.70;;
67819;SDS011;54618;52.018;5.576;2023-07-20T07:32:31;16.70;;;1.85;;
67819;SDS011;54618;52.018;5.576;2023-07-20T07:34:57;4.32;;;0.80;;
67819;SDS011;54618;52.018;5.576;2023-07-20T07:37:25;1.42;;;0.70;;
67819;SDS011;54618;52.018;5.576;2023-07-20T07:39:51;1.35;;;0.70;;
67819;SDS011;54618;52.018;5.576;2023-07-20T07:42:17;1.23;;;0.70;;
67819;SDS011;54618;52.018;5.576;2023-07-20T07:44:45;1.85;;;0.80;;
67819;SDS011;54618;52.018;5.576;2023-07-20T07:47:11;3.47;;;1.00;;
67819;SDS011;54618;52.018;5.576;2023-07-20T07:49:40;3.67;;;0.80;;
67819;SDS011;54618;52.018;5.576;2023-07-20T07:52:06;2.25;;;0.80;;
67819;SDS011;54618;52.018;5.576;2023-07-20T07:54:34;2.03;;;0.80;;
67819;SDS011;54618;52.018;5.576;2023-07-20T07:56:59;3.03;;;0.90;;
67819;SDS011;54618;52.018;5.576;2023-07-20T07:59:25;3.47;;;1.10;;
67819;SDS011;54618;52.018;5.576;2023-07-20T08:01:51;1.58;;;0.80;;
67819;SDS011;54618;52.018;5.576;2023-07-20T08:04:17;2.60;;;0.90;;
67819;SDS011;54618;52.018;5.576;2023-07-20T08:06:43;3.22;;;1.10;;
67819;SDS011;54618;52.018;5.576;2023-07-20T08:09:09;2.22;;;0.80;;
67819;SDS011;54618;52.018;5.576;2023-07-20T08:11:35;1.95;;;0.68;;
67819;SDS011;54618;52.018;5.576;2023-07-20T08:14:00;5.72;;;0.90;;
67819;SDS011;54618;52.018;5.576;2023-07-20T08:16:26;3.88;;;0.90;;
67819;SDS011;54618;52.018;5.576;2023-07-20T08:18:52;2.13;;;0.70;;
67819;SDS011;54618;52.018;5.576;2023-07-20T08:21:18;2.95;;;0.98;;
67819;SDS011;54618;52.018;5.576;2023-07-20T08:23:43;3.97;;;0.80;;
67819;SDS011;54618;52.018;5.576;2023-07-20T08:26:09;1.83;;;0.73;;
67819;SDS011;54618;52.018;5.576;2023-07-20T08:28:35;4.07;;;1.02;;
67819;SDS011;54618;52.018;5.576;2023-07-20T08:31:00;1.98;;;0.70;;
67819;SDS011;54618;52.018;5.576;2023-07-20T08:33:27;3.85;;;0.90;;
67819;SDS011;54618;52.018;5.576;2023-07-20T08:35:54;2.10;;;0.70;;
67819;SDS011;54618;52.018;5.576;2023-07-20T08:38:21;2.35;;;0.70;;
67819;SDS011;54618;52.018;5.576;2023-07-20T08:40:47;2.63;;;0.85;;
67819;SDS011;54618;52.018;5.576;2023-07-20T08:43:13;2.08;;;0.70;;
67819;SDS011;54618;52.018;5.576;2023-07-20T08:45:41;1.52;;;0.80;;
67819;SDS011;54618;52.018;5.576;2023-07-20T08:48:10;3.40;;;1.00;;
67819;SDS011;54618;52.018;5.576;2023-07-20T08:50:37;1.73;;;0.85;;
67819;SDS011;54618;52.018;5.576;2023-07-20T08:53:04;2.38;;;0.73;;
67819;SDS011;54618;52.018;5.576;2023-07-20T08:55:31;3.10;;;0.90;;
67819;SDS011;54618;52.018;5.576;2023-07-20T08:57:57;3.90;;;0.90;;
67819;SDS011;54618;52.018;5.576;2023-07-20T09:00:25;1.75;;;0.80;;
67819;SDS011;54618;52.018;5.576;2023-07-20T09:02:55;2.15;;;0.80;;
67819;SDS011;54618;52.018;5.576;2023-07-20T09:05:23;1.83;;;0.80;;
67819;SDS011;54618;52.018;5.576;2023-07-20T09:07:52;2.20;;;0.88;;
67819;SDS011;54618;52.018;5.576;2023-07-20T09:10:18;2.25;;;0.95;;
67819;SDS011;54618;52.018;5.576;2023-07-20T09:15:14;1.52;;;0.90;;
67819;SDS011;54618;52.018;5.576;2023-07-20T09:17:44;2.00;;;0.85;;
67819;SDS011;54618;52.018;5.576;2023-07-20T09:20:14;2.65;;;1.00;;
67819;SDS011;54618;52.018;5.576;2023-07-20T09:22:44;1.52;;;0.90;;
67819;SDS011;54618;52.018;5.576;2023-07-20T09:25:12;1.38;;;0.70;;
67819;SDS011;54618;52.018;5.576;2023-07-20T09:27:39;4.72;;;1.08;;
67819;SDS011;54618;52.018;5.576;2023-07-20T09:30:09;3.28;;;0.90;;
67819;SDS011;54618;52.018;5.576;2023-07-20T09:32:45;4.25;;;1.40;;
67819;SDS011;54618;52.018;5.576;2023-07-20T09:35:13;2.25;;;0.90;;
67819;SDS011;54618;52.018;5.576;2023-07-20T09:37:49;1.88;;;1.23;;
67819;SDS011;54618;52.018;5.576;2023-07-20T09:40:25;1.75;;;0.90;;
67819;SDS011;54618;52.018;5.576;2023-07-20T09:42:54;3.58;;;1.20;;
67819;SDS011;54618;52.018;5.576;2023-07-20T09:45:29;1.02;;;0.50;;
67819;SDS011;54618;52.018;5.576;2023-07-20T09:50:52;1.85;;;0.60;;
67819;SDS011;54618;52.018;5.576;2023-07-20T09:53:19;1.45;;;0.52;;
67819;SDS011;54618;52.018;5.576;2023-07-20T09:55:48;2.78;;;0.75;;
67819;SDS011;54618;52.018;5.576;2023-07-20T09:58:15;2.20;;;0.70;;
67819;SDS011;54618;52.018;5.576;2023-07-20T10:00:42;1.52;;;0.57;;
67819;SDS011;54618;52.018;5.576;2023-07-20T10:03:18;1.67;;;0.47;;
67819;SDS011;54618;52.018;5.576;2023-07-20T10:05:52;2.40;;;0.65;;
67819;SDS011;54618;52.018;5.576;2023-07-20T10:08:20;1.50;;;0.68;;
67819;SDS011;54618;52.018;5.576;2023-07-20T10:13:25;2.22;;;0.60;;
67819;SDS011;54618;52.018;5.576;2023-07-20T10:16:02;8.18;;;0.70;;
67819;SDS011;54618;52.018;5.576;2023-07-20T10:21:23;7.18;;;0.98;;
67819;SDS011;54618;52.018;5.576;2023-07-20T10:23:50;3.22;;;0.70;;
67819;SDS011;54618;52.018;5.576;2023-07-20T10:26:16;5.18;;;0.75;;
67819;SDS011;54618;52.018;5.576;2023-07-20T10:28:41;2.45;;;0.60;;
67819;SDS011;54618;52.018;5.576;2023-07-20T10:31:11;1.67;;;0.50;;
67819;SDS011;54618;52.018;5.576;2023-07-20T10:33:38;2.40;;;0.70;;
67819;SDS011;54618;52.018;5.576;2023-07-20T10:36:04;1.30;;;0.68;;
67819;SDS011;54618;52.018;5.576;2023-07-20T10:43:48;2.58;;;1.05;;
67819;SDS011;54618;52.018;5.576;2023-07-20T10:46:14;2.53;;;0.60;;
67819;SDS011;54618;52.018;5.576;2023-07-20T10:49:01;1.42;;;0.70;;
67819;SDS011;54618;52.018;5.576;2023-07-20T10:51:29;1.17;;;0.55;;
67819;SDS011;54618;52.018;5.576;2023-07-20T10:54:03;4.68;;;0.70;;
67819;SDS011;54618;52.018;5.576;2023-07-20T10:56:32;2.03;;;0.70;;
67819;SDS011;54618;52.018;5.576;2023-07-20T10:58:59;2.15;;;0.80;;
67819;SDS011;54618;52.018;5.576;2023-07-20T11:01:28;5.28;;;0.80;;
67819;SDS011;54618;52.018;5.576;2023-07-20T11:03:57;3.38;;;0.70;;
67819;SDS011;54618;52.018;5.576;2023-07-20T11:08:49;3.15;;;0.70;;
67819;SDS011;54618;52.018;5.576;2023-07-20T11:11:30;2.88;;;0.70;;
67819;SDS011;54618;52.018;5.576;2023-07-20T11:13:58;0.88;;;0.60;;
67819;SDS011;54618;52.018;5.576;2023-07-20T11:16:42;1.50;;;0.50;;
67819;SDS011;54618;52.018;5.576;2023-07-20T11:21:45;1.15;;;0.60;;
67819;SDS011;54618;52.018;5.576;2023-07-20T11:24:14;2.10;;;0.60;;
67819;SDS011;54618;52.018;5.576;2023-07-20T11:26:40;0.75;;;0.52;;
67819;SDS011;54618;52.018;5.576;2023-07-20T11:29:13;2.25;;;0.60;;
67819;SDS011;54618;52.018;5.576;2023-07-20T11:31:41;1.38;;;0.50;;
67819;SDS011;54618;52.018;5.576;2023-07-20T11:34:11;0.90;;;0.60;;
67819;SDS011;54618;52.018;5.576;2023-07-20T11:36:39;6.80;;;0.98;;
67819;SDS011;54618;52.018;5.576;2023-07-20T11:41:38;1.45;;;0.63;;
67819;SDS011;54618;52.018;5.576;2023-07-20T11:44:05;0.80;;;0.50;;
67819;SDS011;54618;52.018;5.576;2023-07-20T11:46:32;1.58;;;0.60;;
67819;SDS011;54618;52.018;5.576;2023-07-20T11:48:59;1.42;;;0.70;;
67819;SDS011;54618;52.018;5.576;2023-07-20T11:51:29;4.90;;;0.70;;
67819;SDS011;54618;52.018;5.576;2023-07-20T11:53:56;7.05;;;0.90;;
67819;SDS011;54618;52.018;5.576;2023-07-20T11:56:23;5.35;;;0.70;;
67819;SDS011;54618;52.018;5.576;2023-07-20T11:58:50;4.38;;;0.80;;
67819;SDS011;54618;52.018;5.576;2023-07-20T12:01:19;11.88;;;1.27;;
67819;SDS011;54618;52.018;5.576;2023-07-20T12:03:45;18.73;;;1.50;;
67819;SDS011;54618;52.018;5.576;2023-07-20T12:06:13;3.05;;;0.85;;
67819;SDS011;54618;52.018;5.576;2023-07-20T12:08:42;10.10;;;0.82;;
67819;SDS011;54618;52.018;5.576;2023-07-20T12:11:09;1.05;;;0.40;;
67819;SDS011;54618;52.018;5.576;2023-07-20T12:13:44;1.40;;;0.50;;
67819;SDS011;54618;52.018;5.576;2023-07-20T12:16:10;1.25;;;0.55;;
67819;SDS011;54618;52.018;5.576;2023-07-20T12:18:38;1.83;;;0.60;;
67819;SDS011;54618;52.018;5.576;2023-07-20T12:21:05;0.80;;;0.50;;
67819;SDS011;54618;52.018;5.576;2023-07-20T12:23:39;1.77;;;0.60;;
67819;SDS011;54618;52.018;5.576;2023-07-20T12:26:06;2.22;;;0.60;;
67819;SDS011;54618;52.018;5.576;2023-07-20T12:28:38;1.27;;;0.40;;
67819;SDS011;54618;52.018;5.576;2023-07-20T12:31:06;0.82;;;0.60;;
67819;SDS011;54618;52.018;5.576;2023-07-20T12:33:36;1.67;;;0.63;;
67819;SDS011;54618;52.018;5.576;2023-07-20T12:36:03;3.45;;;0.60;;
67819;SDS011;54618;52.018;5.576;2023-07-20T12:38:29;0.73;;;0.60;;
67819;SDS011;54618;52.018;5.576;2023-07-20T12:40:56;1.73;;;0.70;;
67819;SDS011;54618;52.018;5.576;2023-07-20T12:43:21;1.67;;;0.80;;
67819;SDS011;54618;52.018;5.576;2023-07-20T12:45:47;2.47;;;0.80;;
67819;SDS011;54618;52.018;5.576;2023-07-20T12:48:14;2.05;;;0.73;;
67819;SDS011;54618;52.018;5.576;2023-07-20T12:50:39;5.68;;;0.75;;
67819;SDS011;54618;52.018;5.576;2023-07-20T12:53:05;7.85;;;0.80;;
67819;SDS011;54618;52.018;5.576;2023-07-20T12:55:31;2.90;;;0.70;;
67819;SDS011;54618;52.018;5.576;2023-07-20T12:57:57;5.07;;;1.13;;
67819;SDS011;54618;52.018;5.576;2023-07-20T13:00:22;3.40;;;0.73;;
67819;SDS011;54618;52.018;5.576;2023-07-20T13:02:48;5.20;;;0.77;;
67819;SDS011;54618;52.018;5.576;2023-07-20T13:05:14;5.88;;;0.60;;
67819;SDS011;54618;52.018;5.576;2023-07-20T13:07:41;1.50;;;0.60;;
67819;SDS011;54618;52.018;5.576;2023-07-20T13:10:07;8.15;;;0.73;;
67819;SDS011;54618;52.018;5.576;2023-07-20T13:12:36;3.03;;;0.70;;
67819;SDS011;54618;52.018;5.576;2023-07-20T13:15:06;2.95;;;0.60;;
67819;SDS011;54618;52.018;5.576;2023-07-20T13:17:33;0.95;;;0.50;;
67819;SDS011;54618;52.018;5.576;2023-07-20T13:20:00;1.55;;;0.60;;
67819;SDS011;54618;52.018;5.576;2023-07-20T13:22:26;0.93;;;0.60;;
67819;SDS011;54618;52.018;5.576;2023-07-20T13:24:52;0.68;;;0.50;;
67819;SDS011;54618;52.018;5.576;2023-07-20T13:27:18;5.68;;;0.70;;
67819;SDS011;54618;52.018;5.576;2023-07-20T13:29:44;2.45;;;0.80;;
67819;SDS011;54618;52.018;5.576;2023-07-20T13:32:12;1.30;;;0.70;;
67819;SDS011;54618;52.018;5.576;2023-07-20T13:34:39;1.15;;;0.68;;
67819;SDS011;54618;52.018;5.576;2023-07-20T13:37:05;2.20;;;0.57;;
67819;SDS011;54618;52.018;5.576;2023-07-20T13:39:31;1.38;;;0.70;;
67819;SDS011;54618;52.018;5.576;2023-07-20T13:41:57;1.63;;;0.60;;
67819;SDS011;54618;52.018;5.576;2023-07-20T13:44:22;1.67;;;0.60;;
67819;SDS011;54618;52.018;5.576;2023-07-20T13:46:48;1.20;;;0.70;;
67819;SDS011;54618;52.018;5.576;2023-07-20T13:49:15;1.25;;;0.70;;
67819;SDS011;54618;52.018;5.576;2023-07-20T13:51:41;2.55;;;0.70;;
67819;SDS011;54618;52.018;5.576;2023-07-20T13:54:11;2.65;;;0.75;;
67819;SDS011;54618;52.018;5.576;2023-07-20T13:56:37;1.73;;;0.70;;
67819;SDS011;54618;52.018;5.576;2023-07-20T13:59:04;2.60;;;0.70;;
67819;SDS011;54618;52.018;5.576;2023-07-20T14:01:29;2.58;;;0.70;;
67819;SDS011;54618;52.018;5.576;2023-07-20T14:03:57;1.40;;;0.82;;
67819;SDS011;54618;52.018;5.576;2023-07-20T14:06:23;2.63;;;0.73;;
67819;SDS011;54618;52.018;5.576;2023-07-20T14:08:49;4.70;;;0.85;;
67819;SDS011;54618;52.018;5.576;2023-07-20T14:11:15;0.98;;;0.52;;
67819;SDS011;54618;52.018;5.576;2023-07-20T14:13:41;1.92;;;0.90;;
67819;SDS011;54618;52.018;5.576;2023-07-20T14:16:07;1.35;;;0.60;;
67819;SDS011;54618;52.018;5.576;2023-07-20T14:18:33;1.40;;;0.73;;
67819;SDS011;54618;52.018;5.576;2023-07-20T14:20:59;4.10;;;0.73;;
67819;SDS011;54618;52.018;5.576;2023-07-20T14:23:25;1.58;;;0.70;;
67819;SDS011;54618;52.018;5.576;2023-07-20T14:25:50;1.30;;;0.80;;
67819;SDS011;54618;52.018;5.576;2023-07-20T14:28:16;2.03;;;0.90;;
67819;SDS011;54618;52.018;5.576;2023-07-20T14:30:42;2.28;;;1.10;;
67819;SDS011;54618;52.018;5.576;2023-07-20T14:33:08;2.33;;;0.70;;
67819;SDS011;54618;52.018;5.576;2023-07-20T14:35:36;1.98;;;0.68;;
67819;SDS011;54618;52.018;5.576;2023-07-20T14:38:02;2.10;;;0.80;;
67819;SDS011;54618;52.018;5.576;2023-07-20T14:40:28;3.10;;;0.70;;
67819;SDS011;54618;52.018;5.576;2023-07-20T14:42:54;2.90;;;0.80;;
67819;SDS011;54618;52.018;5.576;2023-07-20T14:45:20;2.83;;;0.90;;
67819;SDS011;54618;52.018;5.576;2023-07-20T14:47:46;1.83;;;0.90;;
67819;SDS011;54618;52.018;5.576;2023-07-20T14:50:14;6.80;;;0.80;;
67819;SDS011;54618;52.018;5.576;2023-07-20T14:52:46;1.85;;;0.90;;
67819;SDS011;54618;52.018;5.576;2023-07-20T14:55:12;2.83;;;0.70;;
67819;SDS011;54618;52.018;5.576;2023-07-20T14:57:41;2.00;;;0.82;;
67819;SDS011;54618;52.018;5.576;2023-07-20T15:00:07;2.63;;;0.90;;
67819;SDS011;54618;52.018;5.576;2023-07-20T15:02:35;1.30;;;0.90;;
67819;SDS011;54618;52.018;5.576;2023-07-20T15:05:08;2.13;;;0.85;;
67819;SDS011;54618;52.018;5.576;2023-07-20T15:07:37;2.45;;;0.82;;
67819;SDS011;54618;52.018;5.576;2023-07-20T15:10:06;3.63;;;0.70;;
67819;SDS011;54618;52.018;5.576;2023-07-20T15:12:32;2.45;;;0.90;;
67819;SDS011;54618;52.018;5.576;2023-07-20T15:17:36;1.50;;;0.70;;
67819;SDS011;54618;52.018;5.576;2023-07-20T15:20:03;1.70;;;0.70;;